createdAt,value
2019-05-21T00:00:46.276Z,14.80
2019-05-21T00:03:16.961Z,14.80
2019-05-21T00:05:51.200Z,14.90
2019-05-21T00:08:21.924Z,14.80
2019-05-21T00:10:53.206Z,14.80
2019-05-21T00:13:24.262Z,14.90
2019-05-21T00:15:55.224Z,14.90
2019-05-21T00:18:25.910Z,15.00
2019-05-21T00:20:58.128Z,15.00
2019-05-21T00:23:28.974Z,14.90
2019-05-21T00:25:59.910Z,15.00
2019-05-21T00:28:38.734Z,15.00
2019-05-21T00:31:45.667Z,15.00
2019-05-21T00:34:52.109Z,15.00
2019-05-21T00:37:57.992Z,15.00
2019-05-21T00:41:04.097Z,14.90
2019-05-21T00:43:58.689Z,14.90
2019-05-21T00:46:32.748Z,14.90
2019-05-21T00:49:03.406Z,14.90
2019-05-21T00:51:34.251Z,14.90
2019-05-21T00:54:05.371Z,14.90
2019-05-21T00:56:38.753Z,14.90
2019-05-21T00:59:09.648Z,14.80
2019-05-21T01:01:41.900Z,14.80
2019-05-21T01:04:13.200Z,14.70
2019-05-21T01:06:44.303Z,14.70
2019-05-21T01:09:15.363Z,14.60
2019-05-21T01:11:46.178Z,14.60
2019-05-21T01:14:17.286Z,14.50
2019-05-21T01:16:48.130Z,14.50
2019-05-21T01:19:20.761Z,14.50
2019-05-21T01:21:51.624Z,14.50
2019-05-21T01:24:23.579Z,14.70
2019-05-21T01:26:56.716Z,14.60
2019-05-21T01:29:27.901Z,14.50
2019-05-21T01:32:02.484Z,14.50
2019-05-21T01:34:33.846Z,14.50
2019-05-21T01:37:04.984Z,14.40
2019-05-21T01:39:35.783Z,14.30
2019-05-21T01:42:06.869Z,14.30
2019-05-21T01:44:37.145Z,14.30
2019-05-21T01:47:08.626Z,14.40
2019-05-21T01:49:39.779Z,14.40
2019-05-21T01:52:10.612Z,14.30
2019-05-21T01:54:41.599Z,14.50
2019-05-21T01:57:15.075Z,14.50
2019-05-21T01:59:46.072Z,14.30
2019-05-21T02:05:07.280Z,14.30
2019-05-21T02:07:38.460Z,14.20
2019-05-21T02:10:10.253Z,14.20
2019-05-21T02:12:41.220Z,14.10
2019-05-21T02:15:15.469Z,14.20
2019-05-21T02:17:49.261Z,14.40
2019-05-21T02:20:20.402Z,14.50
2019-05-21T02:22:51.237Z,14.60
2019-05-21T02:25:22.075Z,14.50
2019-05-21T02:27:55.108Z,14.50
2019-05-21T02:33:00.035Z,14.70
2019-05-21T02:35:31.610Z,14.90
2019-05-21T02:38:06.968Z,14.80
2019-05-21T02:40:38.685Z,14.80
2019-05-21T02:43:12.254Z,14.80
2019-05-21T02:45:44.938Z,14.70
2019-05-21T02:48:21.018Z,14.60
2019-05-21T02:50:52.426Z,14.60
2019-05-21T02:53:28.642Z,14.60
2019-05-21T02:55:59.845Z,14.50
2019-05-21T02:58:32.953Z,14.50
2019-05-21T03:01:28.903Z,14.50
2019-05-21T03:04:07.027Z,14.50
2019-05-21T03:06:38.305Z,14.50
2019-05-21T03:09:13.637Z,14.50
2019-05-21T03:11:45.689Z,14.50
2019-05-21T03:14:35.739Z,14.70
2019-05-21T03:17:07.264Z,14.70
2019-05-21T03:19:42.461Z,14.70
2019-05-21T03:22:16.425Z,14.60
2019-05-21T03:24:51.190Z,14.60
2019-05-21T03:27:23.846Z,14.70
2019-05-21T03:29:56.523Z,14.70
2019-05-21T03:32:41.857Z,14.70
2019-05-21T03:35:17.612Z,14.70
2019-05-21T03:37:49.050Z,14.70
2019-05-21T03:40:26.909Z,14.70
2019-05-21T03:43:13.240Z,14.70
2019-05-21T03:45:46.547Z,14.70
2019-05-21T03:48:22.725Z,14.70
2019-05-21T03:50:54.441Z,14.80
2019-05-21T03:53:25.758Z,14.80
2019-05-21T03:55:58.796Z,14.80
2019-05-21T03:58:32.471Z,14.80
2019-05-21T04:01:07.360Z,14.90
2019-05-21T04:03:40.359Z,14.90
2019-05-21T04:06:13.674Z,15.00
2019-05-21T04:08:47.287Z,15.00
2019-05-21T04:11:21.197Z,15.20
2019-05-21T04:13:52.651Z,15.30
2019-05-21T04:16:32.937Z,15.40
2019-05-21T04:19:13.342Z,15.50
2019-05-21T04:21:46.487Z,15.60
2019-05-21T04:24:17.727Z,15.60
2019-05-21T04:27:00.961Z,15.70
2019-05-21T04:33:31.652Z,15.70
2019-05-21T04:36:05.658Z,15.60
2019-05-21T04:38:38.428Z,15.70
2019-05-21T04:41:09.161Z,15.80
2019-05-21T04:44:26.769Z,15.90
2019-05-21T04:54:36.949Z,16.50
2019-05-21T04:57:08.431Z,16.70
2019-05-21T04:59:39.600Z,16.80
2019-05-21T05:02:14.781Z,16.90
2019-05-21T05:04:46.504Z,16.80
2019-05-21T05:07:43.355Z,16.80
2019-05-21T05:10:24.772Z,16.80
2019-05-21T05:13:11.536Z,16.80
2019-05-21T05:15:46.674Z,16.80
2019-05-21T05:18:55.264Z,16.80
2019-05-21T05:21:26.831Z,16.80
2019-05-21T05:24:20.428Z,17.00
2019-05-21T05:30:43.217Z,17.10
2019-05-21T05:33:17.120Z,17.30
2019-05-21T05:35:56.424Z,17.30
2019-05-21T05:41:43.400Z,17.20
2019-05-21T05:44:42.942Z,17.20
2019-05-21T05:47:33.146Z,17.30
2019-05-21T05:50:13.789Z,17.40
2019-05-21T05:52:47.410Z,17.50
2019-05-21T05:55:45.365Z,17.50
2019-05-21T05:58:28.377Z,17.50
2019-05-21T06:01:39.211Z,17.60
2019-05-21T06:04:30.264Z,17.50
2019-05-21T06:06:55.470Z,17.80
2019-05-21T06:12:40.791Z,17.90
2019-05-21T06:15:16.547Z,18.00
2019-05-21T06:17:50.243Z,17.90
2019-05-21T06:20:28.041Z,18.00
2019-05-21T06:23:06.115Z,18.10
2019-05-21T06:25:38.889Z,18.00
2019-05-21T06:28:19.230Z,18.20
2019-05-21T06:31:01.356Z,18.20
2019-05-21T06:33:34.844Z,18.40
2019-05-21T06:36:59.321Z,18.40
2019-05-21T06:39:38.415Z,18.50
2019-05-21T06:42:33.164Z,18.90
2019-05-21T06:45:14.043Z,19.30
2019-05-21T06:48:18.649Z,19.50
2019-05-21T06:54:44.770Z,18.90
2019-05-21T06:58:35.973Z,19.10
2019-05-21T07:01:50.180Z,18.80
2019-05-21T07:04:29.599Z,18.80
2019-05-21T07:07:05.238Z,19.00
2019-05-21T07:09:45.751Z,19.30
2019-05-21T07:12:28.495Z,19.50
2019-05-21T07:15:08.749Z,19.60
2019-05-21T07:17:45.690Z,19.80
2019-05-21T07:20:22.214Z,19.80
2019-05-21T07:22:55.237Z,20.20
2019-05-21T07:25:46.292Z,19.90
2019-05-21T07:28:17.711Z,19.90
2019-05-21T07:30:59.450Z,20.10
2019-05-21T07:33:31.025Z,20.30
2019-05-21T07:36:13.475Z,20.50
2019-05-21T07:38:53.080Z,20.60
2019-05-21T07:41:20.471Z,20.40
2019-05-21T07:43:52.348Z,20.20
2019-05-21T07:46:23.317Z,20.40
2019-05-21T07:48:59.248Z,20.70
2019-05-21T07:51:39.414Z,21.00
2019-05-21T07:54:21.855Z,21.30
2019-05-21T07:57:00.840Z,21.30
2019-05-21T07:59:35.726Z,21.60
2019-05-21T08:02:10.107Z,21.30
2019-05-21T08:04:47.724Z,21.80
2019-05-21T08:07:21.834Z,22.00
2019-05-21T08:09:52.857Z,22.20
2019-05-21T08:12:38.208Z,21.90
2019-05-21T08:14:59.478Z,22.00
2019-05-21T08:17:33.493Z,21.70
2019-05-21T08:20:09.778Z,21.40
2019-05-21T08:22:39.719Z,21.80
2019-05-21T08:25:14.800Z,21.50
2019-05-21T08:27:45.518Z,21.80
2019-05-21T08:30:22.097Z,21.60
2019-05-21T08:32:52.823Z,21.90
2019-05-21T08:35:23.561Z,22.20
2019-05-21T08:37:57.060Z,22.30
2019-05-21T08:40:27.770Z,22.50
2019-05-21T08:42:58.553Z,22.70
2019-05-21T08:45:29.564Z,22.50
2019-05-21T08:48:02.422Z,22.60
2019-05-21T08:50:38.495Z,22.90
2019-05-21T08:53:09.577Z,22.90
2019-05-21T08:55:40.729Z,23.30
2019-05-21T08:58:11.408Z,23.70
2019-05-21T09:00:41.990Z,24.20
2019-05-21T09:03:13.464Z,24.50
2019-05-21T09:05:44.057Z,24.50
2019-05-21T09:08:14.927Z,24.20
2019-05-21T09:10:45.716Z,24.10
2019-05-21T09:13:17.962Z,24.00
2019-05-21T09:15:49.029Z,24.00
2019-05-21T09:18:22.330Z,24.20
2019-05-21T09:20:53.141Z,24.30
2019-05-21T09:23:24.255Z,24.20
2019-05-21T09:25:55.719Z,23.80
2019-05-21T09:28:26.557Z,23.90
2019-05-21T09:31:01.419Z,23.50
2019-05-21T09:33:33.808Z,23.50
2019-05-21T09:36:05.861Z,23.20
2019-05-21T09:38:36.699Z,23.00
2019-05-21T09:41:07.514Z,22.50
2019-05-21T09:43:38.568Z,22.20
2019-05-21T09:46:10.730Z,22.10
2019-05-21T09:48:42.679Z,21.90
2019-05-21T09:51:19.778Z,21.80
2019-05-21T09:53:47.785Z,21.60
2019-05-21T09:56:35.500Z,21.30
2019-05-21T09:59:33.050Z,21.00
2019-05-21T10:02:10.687Z,20.70
2019-05-21T10:04:42.327Z,20.40
2019-05-21T10:07:13.506Z,20.30
2019-05-21T10:09:44.383Z,20.10
2019-05-21T10:12:15.163Z,20.00
2019-05-21T10:14:45.990Z,20.00
2019-05-21T10:17:16.587Z,19.90
2019-05-21T10:19:47.025Z,19.80
2019-05-21T10:22:17.488Z,19.80
2019-05-21T10:24:48.325Z,19.90
2019-05-21T10:27:18.932Z,19.70
2019-05-21T10:29:49.364Z,19.80
2019-05-21T10:32:19.970Z,19.80
2019-05-21T10:34:50.470Z,19.80
2019-05-21T10:37:21.029Z,19.80
2019-05-21T10:39:51.873Z,20.00
2019-05-21T10:42:22.678Z,20.10
2019-05-21T10:44:53.165Z,20.20
2019-05-21T10:47:23.934Z,20.30
2019-05-21T10:49:54.496Z,20.30
2019-05-21T10:52:25.355Z,20.50
2019-05-21T10:54:56.814Z,20.60
2019-05-21T10:57:37.873Z,20.80
2019-05-21T11:00:13.339Z,21.00
2019-05-21T11:03:01.456Z,20.90
2019-05-21T11:05:36.350Z,21.10
2019-05-21T11:08:23.493Z,21.30
2019-05-21T11:10:42.882Z,21.50
2019-05-21T11:13:13.819Z,21.60
2019-05-21T11:15:44.555Z,21.90
2019-05-21T11:18:16.790Z,22.10
2019-05-21T11:20:47.507Z,22.50
2019-05-21T11:23:18.438Z,22.90
2019-05-21T11:25:49.143Z,23.20
2019-05-21T11:28:20.939Z,23.60
2019-05-21T11:30:52.928Z,23.50
2019-05-21T11:33:24.579Z,23.70
2019-05-21T11:35:55.234Z,24.20
2019-05-21T11:38:39.560Z,24.60
2019-05-21T11:40:59.759Z,25.10
2019-05-21T11:43:30.380Z,25.40
2019-05-21T11:46:04.799Z,25.70
2019-05-21T11:48:35.473Z,25.80
2019-05-21T11:51:12.618Z,25.70
2019-05-21T11:53:42.629Z,25.90
2019-05-21T11:56:13.324Z,25.70
2019-05-21T11:58:44.044Z,25.00
2019-05-21T12:01:14.774Z,24.90
2019-05-21T12:03:45.574Z,24.50
2019-05-21T12:06:16.346Z,25.00
2019-05-21T12:08:56.278Z,25.20
2019-05-21T12:11:19.376Z,25.00
2019-05-21T12:13:50.055Z,24.60
2019-05-21T12:16:20.612Z,24.70
2019-05-21T12:18:51.498Z,24.20
2019-05-21T12:21:24.064Z,23.90
2019-05-21T12:23:55.125Z,24.10
2019-05-21T12:26:25.897Z,24.30
2019-05-21T12:28:56.547Z,24.10
2019-05-21T12:33:56.650Z,24.40
2019-05-21T12:36:27.497Z,24.30
2019-05-21T12:39:13.182Z,24.20
2019-05-21T12:41:30.987Z,24.50
2019-05-21T12:44:01.477Z,25.30
2019-05-21T12:46:32.186Z,25.60
2019-05-21T12:49:02.709Z,26.80
2019-05-21T12:51:33.418Z,26.80
2019-05-21T12:54:05.171Z,28.50
2019-05-21T12:56:35.869Z,31.20
2019-05-21T12:59:06.456Z,31.90
2019-05-21T13:01:37.209Z,30.00
2019-05-21T13:04:07.810Z,30.20
2019-05-21T13:06:38.288Z,30.50
2019-05-21T13:09:09.414Z,29.20
2019-05-21T13:11:40.346Z,27.90
2019-05-21T13:14:14.884Z,26.50
2019-05-21T13:16:43.141Z,28.00
2019-05-21T13:19:15.637Z,28.70
2019-05-21T13:21:46.264Z,29.60
2019-05-21T13:24:16.756Z,29.70
2019-05-21T13:26:47.636Z,30.80
2019-05-21T13:29:18.022Z,28.60
2019-05-21T13:31:48.817Z,27.80
2019-05-21T13:34:19.255Z,26.60
2019-05-21T13:36:50.068Z,26.10
2019-05-21T13:39:25.349Z,26.50
2019-05-21T13:41:54.077Z,25.60
2019-05-21T13:44:24.560Z,25.80
2019-05-21T13:46:59.424Z,25.90
2019-05-21T13:49:29.940Z,26.10
2019-05-21T13:52:00.857Z,25.60
2019-05-21T13:54:32.154Z,25.80
2019-05-21T13:57:02.981Z,25.30
2019-05-21T13:59:33.809Z,24.70
2019-05-21T14:02:06.089Z,23.80
2019-05-21T14:04:37.056Z,23.30
2019-05-21T14:07:09.460Z,23.30
2019-05-21T14:09:40.002Z,23.20
2019-05-21T14:14:42.860Z,23.40
2019-05-21T14:17:14.867Z,23.60
2019-05-21T14:19:45.736Z,23.30
2019-05-21T14:22:16.188Z,23.30
2019-05-21T14:24:47.091Z,23.30
2019-05-21T14:27:18.621Z,22.90
2019-05-21T14:29:49.632Z,22.60
2019-05-21T14:32:20.297Z,22.90
2019-05-21T14:35:00.754Z,22.30
2019-05-21T14:37:22.845Z,22.50
2019-05-21T14:39:53.773Z,22.40
2019-05-21T14:42:24.904Z,22.00
2019-05-21T14:44:55.917Z,22.10
2019-05-21T14:47:29.379Z,21.90
2019-05-21T14:50:00.457Z,22.00
2019-05-21T14:52:32.213Z,21.90
2019-05-21T14:55:04.296Z,22.10
2019-05-21T14:57:34.895Z,21.90
2019-05-21T15:02:42.237Z,22.20
2019-05-21T15:05:13.073Z,22.40
2019-05-21T15:07:43.547Z,22.70
2019-05-21T15:10:14.075Z,23.00
2019-05-21T15:12:44.686Z,23.10
2019-05-21T15:15:15.470Z,23.70
2019-05-21T15:17:46.196Z,23.40
2019-05-21T15:20:45.415Z,23.50
2019-05-21T15:23:16.101Z,23.80
2019-05-21T15:25:47.087Z,24.10
2019-05-21T15:28:17.808Z,24.90
2019-05-21T15:30:48.137Z,25.10
2019-05-21T15:33:19.735Z,25.50
2019-05-21T15:35:50.329Z,25.40
2019-05-21T15:38:21.076Z,25.50
2019-05-21T15:41:08.369Z,23.80
2019-05-21T15:43:26.288Z,23.20
2019-05-21T15:45:59.461Z,23.00
2019-05-21T15:48:33.033Z,22.60
2019-05-21T15:51:03.648Z,22.50
2019-05-21T15:53:35.334Z,21.80
2019-05-21T15:56:07.333Z,21.30
2019-05-21T15:58:41.566Z,20.40
2019-05-21T16:01:14.434Z,20.30
2019-05-21T16:03:45.410Z,20.30
2019-05-21T16:06:15.954Z,20.20
2019-05-21T16:08:47.048Z,20.00
2019-05-21T16:11:28.244Z,20.00
2019-05-21T16:13:50.477Z,20.20
2019-05-21T16:16:21.142Z,20.20
2019-05-21T16:18:51.865Z,20.10
2019-05-21T16:21:22.590Z,20.00
2019-05-21T16:23:53.471Z,20.00
2019-05-21T16:26:24.511Z,19.90
2019-05-21T16:28:55.454Z,19.80
2019-05-21T16:31:26.015Z,19.90
2019-05-21T16:33:56.878Z,19.90
2019-05-21T16:36:27.419Z,19.80
2019-05-21T16:38:58.064Z,19.70
2019-05-21T16:41:41.847Z,19.70
2019-05-21T16:44:01.838Z,19.60
2019-05-21T16:46:32.752Z,19.60
2019-05-21T16:49:07.104Z,19.60
2019-05-21T16:51:43.314Z,19.60
2019-05-21T16:54:21.369Z,19.70
2019-05-21T16:56:53.816Z,19.90
2019-05-21T16:59:24.815Z,19.90
2019-05-21T17:02:02.326Z,19.90
2019-05-21T17:04:44.376Z,19.90
2019-05-21T17:07:23.354Z,20.10
2019-05-21T17:09:54.218Z,20.00
2019-05-21T17:12:30.788Z,20.10
2019-05-21T17:15:16.821Z,20.00
2019-05-21T17:17:48.896Z,20.00
2019-05-21T17:23:13.550Z,19.70
2019-05-21T17:25:45.215Z,19.80
2019-05-21T17:28:15.771Z,19.50
2019-05-21T17:30:46.887Z,19.30
2019-05-21T17:33:18.683Z,19.40
2019-05-21T17:35:51.808Z,19.30
2019-05-21T17:38:24.470Z,19.40
2019-05-21T17:40:54.847Z,19.40
2019-05-21T17:43:26.149Z,19.30
2019-05-21T17:45:57.072Z,19.30
2019-05-21T17:48:27.768Z,19.30
2019-05-21T17:50:59.256Z,19.30
2019-05-21T17:53:29.910Z,19.20
2019-05-21T17:56:01.053Z,19.20
2019-05-21T17:58:32.687Z,19.20
2019-05-21T18:01:05.868Z,19.20
2019-05-21T18:03:37.091Z,19.20
2019-05-21T18:06:08.365Z,19.00
2019-05-21T18:08:39.187Z,18.80
2019-05-21T18:11:11.536Z,18.90
2019-05-21T18:13:42.595Z,18.90
2019-05-21T18:16:14.260Z,19.00
2019-05-21T18:18:44.907Z,19.10
2019-05-21T18:21:16.617Z,19.10
2019-05-21T18:23:47.352Z,19.10
2019-05-21T18:26:18.152Z,19.20
2019-05-21T18:28:48.764Z,19.20
2019-05-21T18:31:19.693Z,19.10
2019-05-21T18:33:50.144Z,19.00
2019-05-21T18:36:20.804Z,19.10
2019-05-21T18:38:51.332Z,19.10
2019-05-21T18:41:23.610Z,19.10
2019-05-21T18:43:54.295Z,19.10
2019-05-21T18:46:25.434Z,19.10
2019-05-21T18:48:56.104Z,19.00
2019-05-21T18:51:26.965Z,19.00
2019-05-21T18:53:57.616Z,19.00
2019-05-21T18:56:28.175Z,19.00
2019-05-21T18:58:58.836Z,19.00
2019-05-21T19:01:29.835Z,19.00
2019-05-21T19:04:00.524Z,19.00
2019-05-21T19:06:31.420Z,18.90
2019-05-21T19:09:02.487Z,18.90
2019-05-21T19:11:34.155Z,18.90
2019-05-21T19:14:05.139Z,18.90
2019-05-21T19:16:36.053Z,18.80
2019-05-21T19:19:10.689Z,18.80
2019-05-21T19:21:43.384Z,18.70
2019-05-21T19:24:14.269Z,18.70
2019-05-21T19:26:44.825Z,18.60
2019-05-21T19:29:15.519Z,18.60
2019-05-21T19:31:49.202Z,18.60
2019-05-21T19:34:18.640Z,18.50
2019-05-21T19:36:49.832Z,18.40
2019-05-21T19:39:20.526Z,18.40
2019-05-21T19:41:51.263Z,18.20
2019-05-21T19:44:21.981Z,18.10
2019-05-21T19:46:52.824Z,18.10
2019-05-21T19:49:23.503Z,18.10
2019-05-21T19:51:54.416Z,18.00
2019-05-21T19:54:25.051Z,17.90
2019-05-21T19:56:55.940Z,17.80
2019-05-21T19:59:27.505Z,17.80
2019-05-21T20:01:58.556Z,17.80
2019-05-21T20:04:29.996Z,17.70
2019-05-21T20:07:01.284Z,17.60
2019-05-21T20:09:33.144Z,17.50
2019-05-21T20:12:04.713Z,17.50
2019-05-21T20:14:35.612Z,17.40
2019-05-21T20:17:08.420Z,17.30
2019-05-21T20:19:42.688Z,17.20
2019-05-21T20:22:13.855Z,17.20
2019-05-21T20:24:44.790Z,17.20
2019-05-21T20:27:16.068Z,17.20
2019-05-21T20:29:47.250Z,17.30
2019-05-21T20:32:20.093Z,17.30
2019-05-21T20:34:51.502Z,17.30
2019-05-21T20:37:26.468Z,17.20
2019-05-21T20:39:58.009Z,17.20
2019-05-21T20:42:30.971Z,17.20
2019-05-21T20:45:03.010Z,17.20
2019-05-21T20:47:34.537Z,17.30
2019-05-21T20:50:11.778Z,17.40
2019-05-21T20:52:43.733Z,17.40
2019-05-21T20:55:16.102Z,17.40
2019-05-21T20:57:47.172Z,17.30
2019-05-21T21:00:23.027Z,17.30
2019-05-21T21:02:53.979Z,17.20
2019-05-21T21:05:25.031Z,17.30
2019-05-21T21:07:55.968Z,17.30
2019-05-21T21:10:28.905Z,17.40
2019-05-21T21:13:00.132Z,17.50
2019-05-21T21:15:31.805Z,17.50
2019-05-21T21:18:03.301Z,17.40
2019-05-21T21:20:37.015Z,17.50
2019-05-21T21:23:07.741Z,17.50
2019-05-21T21:25:38.787Z,17.50
2019-05-21T21:28:09.577Z,17.50
2019-05-21T21:30:40.511Z,17.50
2019-05-21T21:33:12.678Z,17.40
2019-05-21T21:35:43.866Z,17.40
2019-05-21T21:38:17.443Z,17.20
2019-05-21T21:40:48.895Z,17.10
2019-05-21T21:43:19.816Z,17.00
2019-05-21T21:45:50.480Z,17.00
2019-05-21T21:48:21.695Z,16.90
2019-05-21T21:50:52.568Z,16.90
2019-05-21T21:53:24.448Z,17.00
2019-05-21T21:55:54.977Z,16.90
2019-05-21T21:58:25.799Z,16.90
2019-05-21T22:01:31.431Z,16.80
2019-05-21T22:04:05.472Z,16.70
2019-05-21T22:06:39.412Z,16.50
2019-05-21T22:09:19.330Z,16.40
2019-05-21T22:11:50.164Z,16.30
2019-05-21T22:14:21.484Z,16.30
2019-05-21T22:16:56.042Z,16.20
2019-05-21T22:19:28.188Z,16.20
2019-05-21T22:21:59.627Z,16.10
2019-05-21T22:24:31.117Z,16.10
2019-05-21T22:27:02.180Z,16.00
2019-05-21T22:29:33.102Z,16.00
2019-05-21T22:32:03.760Z,16.00
2019-05-21T22:34:35.045Z,16.00
2019-05-21T22:37:08.141Z,15.90
2019-05-21T22:39:43.079Z,15.90
2019-05-21T22:42:15.993Z,15.80
2019-05-21T22:45:06.754Z,15.60
2019-05-21T22:47:24.139Z,15.60
2019-05-21T22:49:55.447Z,15.60
2019-05-21T22:52:28.060Z,15.50
2019-05-21T22:54:59.324Z,15.60
2019-05-21T22:57:30.906Z,15.70
2019-05-21T23:00:02.575Z,15.70
2019-05-21T23:02:37.235Z,15.80
2019-05-21T23:05:10.408Z,15.90
2019-05-21T23:07:42.870Z,16.00
2019-05-21T23:10:14.321Z,16.00
2019-05-21T23:12:45.180Z,16.10
2019-05-21T23:15:24.874Z,16.20
2019-05-21T23:18:06.596Z,16.20
2019-05-21T23:20:42.013Z,16.20
2019-05-21T23:23:13.449Z,16.30
2019-05-21T23:25:46.364Z,16.20
2019-05-21T23:28:17.932Z,16.30
2019-05-21T23:30:49.618Z,16.30
2019-05-21T23:33:23.886Z,16.30
2019-05-21T23:35:55.185Z,16.40
2019-05-21T23:38:26.393Z,16.30
2019-05-21T23:40:58.441Z,16.40
2019-05-21T23:43:30.077Z,16.40
2019-05-21T23:46:01.096Z,16.40
2019-05-21T23:48:32.308Z,16.40
2019-05-21T23:51:02.971Z,16.30
2019-05-21T23:53:33.697Z,16.30
2019-05-21T23:56:06.785Z,16.30
2019-05-21T23:58:37.820Z,16.30
